Time;durP1;ratioP1;P1;durP2;ratioP2;P2;SDS_P1;SDS_P2;PMS_P1;PMS_P2;Temp;Humidity;BMP_temperature;BMP_pressure;BME280_temperature;BME280_humidity;BME280_pressure;Samples;Min_cycle;Max_cycle;Signal;HPM_P1;HPM_P2
2022/03/22 00:01:14;;;;;;;276.45;122.62;;;;;;;-0.58;64.68;96550.06;1645036;85;21021;-51
2022/03/22 00:03:45;;;;;;;264.32;116.97;;;;;;;-0.61;64.88;96550.73;1642594;87;21042;-50
2022/03/22 00:06:12;;;;;;;279.40;121.77;;;;;;;-0.66;65.11;96545.52;1645396;86;21073;-51
2022/03/22 00:08:41;;;;;;;254.43;117.70;;;;;;;-0.67;65.28;96545.28;1632649;86;21172;-50
2022/03/22 00:11:11;;;;;;;237.10;107.07;;;;;;;-0.70;65.56;96539.20;1621826;87;20991;-50
2022/03/22 00:13:39;;;;;;;220.80;104.43;;;;;;;-0.67;65.68;96541.23;1634145;86;21088;-52
2022/03/22 00:16:07;;;;;;;217.20;101.18;;;;;;;-0.64;65.37;96538.67;1635579;86;21081;-51
2022/03/22 00:18:37;;;;;;;213.05;98.62;;;;;;;-0.65;65.39;96536.28;1655565;85;21510;-53
2022/03/22 00:21:07;;;;;;;217.20;101.27;;;;;;;-0.67;65.46;96537.18;1666223;85;21488;-50
2022/03/22 00:23:35;;;;;;;202.75;92.60;;;;;;;-0.65;65.50;96543.04;1663544;85;21216;-51
2022/03/22 00:26:03;;;;;;;206.63;97.57;;;;;;;-0.64;65.21;96537.86;1665568;85;21414;-51
2022/03/22 00:28:31;;;;;;;201.52;94.67;;;;;;;-0.59;65.40;96538.45;1657778;85;21109;-49
2022/03/22 00:30:59;;;;;;;219.18;101.42;;;;;;;-0.56;64.99;96536.44;1664920;85;20999;-52
2022/03/22 00:33:26;;;;;;;187.32;89.65;;;;;;;-0.59;65.15;96536.33;1661139;85;21382;-51
2022/03/22 00:35:53;;;;;;;190.28;91.63;;;;;;;-0.66;65.13;96536.06;1667446;85;21218;-50
2022/03/22 00:38:21;;;;;;;193.22;91.02;;;;;;;-0.67;65.31;96539.88;1669692;85;21033;-51
2022/03/22 00:40:50;;;;;;;195.43;92.02;;;;;;;-0.66;64.99;96540.11;1667948;85;20979;-50
2022/03/22 00:43:18;;;;;;;197.35;94.47;;;;;;;-0.75;65.10;96542.11;1664752;85;20992;-51
2022/03/22 00:45:48;;;;;;;194.43;93.65;;;;;;;-0.88;65.19;96546.67;1665917;85;20982;-50
2022/03/22 00:48:17;;;;;;;190.65;90.07;;;;;;;-0.99;65.60;96547.41;1654090;85;21059;-51
2022/03/22 00:50:47;;;;;;;196.40;92.60;;;;;;;-1.04;65.81;96546.23;1656120;85;21037;-50
2022/03/22 00:53:15;;;;;;;213.97;99.83;;;;;;;-1.12;66.19;96544.41;1661811;85;21095;-50
2022/03/22 00:55:43;;;;;;;192.05;93.87;;;;;;;-1.11;66.45;96543.28;1664848;85;21102;-50
2022/03/22 00:58:11;;;;;;;190.85;89.72;;;;;;;-1.07;66.57;96541.50;1661706;85;21459;-49
2022/03/22 01:00:38;;;;;;;204.20;92.85;;;;;;;-1.11;66.35;96543.28;1645435;86;21502;-50
2022/03/22 01:03:08;;;;;;;197.00;92.97;;;;;;;-1.17;66.57;96540.56;1630007;86;21038;-51
2022/03/22 01:05:38;;;;;;;226.90;101.33;;;;;;;-1.17;66.49;96532.45;1635657;86;21569;-50
2022/03/22 01:08:10;;;;;;;214.60;100.78;;;;;;;-1.19;66.56;96540.87;1647142;84;21244;-50
2022/03/22 01:10:41;;;;;;;224.77;98.67;;;;;;;-1.25;66.57;96542.20;1647618;85;21023;-50
2022/03/22 01:13:08;;;;;;;235.60;103.12;;;;;;;-1.29;66.85;96543.95;1636808;86;21172;-51
2022/03/22 01:15:37;;;;;;;234.27;108.40;;;;;;;-1.32;66.96;96549.23;1637904;86;21093;-50
2022/03/22 01:18:07;;;;;;;235.40;106.40;;;;;;;-1.35;67.04;96541.80;1631957;86;21091;-52
2022/03/22 01:20:37;;;;;;;223.95;104.15;;;;;;;-1.38;67.15;96542.42;1648797;86;21129;-50
2022/03/22 01:23:10;;;;;;;260.50;105.03;;;;;;;-1.44;67.27;96543.74;1647662;86;21632;-52
2022/03/22 01:25:39;;;;;;;215.27;94.70;;;;;;;-1.51;67.47;96535.38;1619218;86;21251;-51
2022/03/22 01:28:08;;;;;;;194.72;85.32;;;;;;;-1.57;67.68;96542.06;1637225;85;21074;-51
2022/03/22 01:30:36;;;;;;;226.30;101.75;;;;;;;-1.61;67.88;96546.54;1641764;86;21076;-52
2022/03/22 01:33:03;;;;;;;239.45;105.52;;;;;;;-1.67;68.00;96542.45;1657960;85;21084;-51
2022/03/22 01:35:31;;;;;;;223.25;96.85;;;;;;;-1.73;68.25;96540.50;1665879;85;20995;-49
2022/03/22 01:37:58;;;;;;;227.45;105.83;;;;;;;-1.76;68.32;96544.39;1647313;85;22063;-51
2022/03/22 01:40:27;;;;;;;218.90;96.32;;;;;;;-1.78;68.51;96546.63;1634133;86;21168;-51
2022/03/22 01:42:54;;;;;;;208.72;100.12;;;;;;;-1.75;68.67;96543.27;1636582;84;21094;-51
2022/03/22 01:45:21;;;;;;;214.27;97.75;;;;;;;-1.66;68.96;96535.94;1633041;85;21183;-50
2022/03/22 01:47:50;;;;;;;205.15;95.83;;;;;;;-1.54;68.72;96532.77;1657591;85;21047;-52
2022/03/22 01:50:19;;;;;;;215.57;99.50;;;;;;;-1.46;68.25;96532.48;1653231;85;21183;-53
2022/03/22 01:52:48;;;;;;;227.30;103.07;;;;;;;-1.47;68.10;96531.69;1661725;85;21002;-52
2022/03/22 01:55:18;;;;;;;234.03;99.85;;;;;;;-1.50;68.08;96528.88;1658344;85;21055;-52
2022/03/22 01:57:45;;;;;;;205.25;95.07;;;;;;;-1.55;68.34;96527.14;1664527;85;21057;-53
2022/03/22 02:00:20;;;;;;;233.32;104.75;;;;;;;-1.52;68.07;96521.09;1652062;85;21057;-53
2022/03/22 02:05:56;;;;;;;245.50;110.05;;;;;;;-1.35;67.54;96518.85;1651574;85;21002;-51
2022/03/22 02:08:28;;;;;;;243.78;112.68;;;;;;;-1.39;67.11;96524.11;1637277;85;21031;-52
2022/03/22 02:10:59;;;;;;;229.53;103.47;;;;;;;-1.38;67.09;96524.88;1664882;85;20982;-50
2022/03/22 02:13:31;;;;;;;224.20;100.92;;;;;;;-1.33;66.84;96526.83;1659548;85;20970;-52
2022/03/22 02:16:01;;;;;;;220.17;98.05;;;;;;;-1.31;66.75;96521.12;1663312;85;21137;-52
2022/03/22 02:18:32;;;;;;;216.55;98.52;;;;;;;-1.28;66.65;96523.97;1664832;85;20980;-51
2022/03/22 02:21:00;;;;;;;240.40;104.20;;;;;;;-1.26;66.70;96520.38;1657883;85;21101;-52
2022/03/22 02:23:52;;;;;;;249.62;106.32;;;;;;;-1.24;66.59;96518.67;1668960;85;21029;-50
2022/03/22 02:26:20;;;;;;;238.82;101.85;;;;;;;-1.27;66.63;96509.89;1630483;86;21007;-52
2022/03/22 02:28:53;;;;;;;217.32;97.53;;;;;;;-1.32;66.62;96513.56;1621538;86;21190;-51
2022/03/22 02:31:18;;;;;;;215.12;94.87;;;;;;;-1.41;66.73;96509.34;1626343;86;21233;-51
2022/03/22 02:33:47;;;;;;;174.77;79.75;;;;;;;-1.53;66.99;96511.98;1622373;86;21451;-51
2022/03/22 02:36:14;;;;;;;167.22;77.17;;;;;;;-1.59;67.31;96510.58;1616816;85;21034;-50
2022/03/22 02:38:42;;;;;;;173.85;80.75;;;;;;;-1.71;67.49;96505.89;1645235;85;21029;-51
2022/03/22 02:41:16;;;;;;;256.82;116.33;;;;;;;-1.81;67.77;96509.52;1653748;85;21824;-51
2022/03/22 02:43:46;;;;;;;214.72;99.55;;;;;;;-1.87;67.96;96508.68;1675854;84;22398;-50
2022/03/22 02:46:14;;;;;;;197.55;89.22;;;;;;;-1.87;67.93;96512.72;1673249;84;21605;-51
2022/03/22 02:48:42;;;;;;;189.03;85.92;;;;;;;-1.85;68.11;96510.48;1679210;84;21507;-52
2022/03/22 02:51:11;;;;;;;186.28;88.40;;;;;;;-1.87;68.09;96504.63;1654078;84;21140;-53
2022/03/22 02:53:39;;;;;;;188.12;87.47;;;;;;;-1.94;68.43;96502.44;1678099;84;21140;-52
2022/03/22 02:56:07;;;;;;;185.70;84.97;;;;;;;-1.97;68.49;96500.40;1671692;85;21121;-53
2022/03/22 02:58:36;;;;;;;187.95;84.62;;;;;;;-2.02;68.68;96501.94;1647364;85;21074;-56
2022/03/22 03:01:04;;;;;;;179.47;85.90;;;;;;;-2.03;68.83;96496.31;1666726;85;21094;-51
2022/03/22 03:03:34;;;;;;;206.43;97.05;;;;;;;-2.03;68.77;96499.02;1665084;85;21055;-52
2022/03/22 03:06:03;;;;;;;196.63;95.07;;;;;;;-2.03;68.77;96499.02;1666030;85;21580;-50
2022/03/22 03:08:31;;;;;;;197.13;92.80;;;;;;;-1.98;68.87;96504.21;1669368;85;20982;-50
2022/03/22 03:10:58;;;;;;;174.57;84.52;;;;;;;-1.90;68.56;96504.75;1636942;85;21185;-53
2022/03/22 03:14:38;;;;;;;198.62;92.50;;;;;;;-1.90;68.59;96499.35;1663721;85;21039;-52
2022/03/22 03:15:57;;;;;;;193.45;92.37;;;;;;;-1.87;68.65;96508.14;1658383;85;21023;-52
2022/03/22 03:18:25;;;;;;;190.82;91.45;;;;;;;-1.85;68.41;96511.30;1639041;85;21874;-53
2022/03/22 03:20:54;;;;;;;212.80;99.97;;;;;;;-1.80;68.17;96511.10;1662752;85;21506;-52
2022/03/22 03:23:21;;;;;;;199.87;91.25;;;;;;;-1.78;67.95;96506.17;1657308;84;21596;-57
2022/03/22 03:25:48;;;;;;;198.40;95.32;;;;;;;-1.71;67.79;96515.91;1644421;85;21018;-51
2022/03/22 03:28:16;;;;;;;185.10;89.03;;;;;;;-1.67;67.40;96508.73;1635438;86;20978;-53
2022/03/22 03:30:44;;;;;;;200.50;94.30;;;;;;;-1.62;67.35;96509.88;1637394;86;21180;-52
2022/03/22 03:33:12;;;;;;;190.05;90.03;;;;;;;-1.55;66.95;96510.15;1635588;85;21121;-52
2022/03/22 03:35:40;;;;;;;192.47;94.90;;;;;;;-1.61;66.47;96506.88;1653834;85;20995;-52
2022/03/22 03:38:07;;;;;;;192.13;90.65;;;;;;;-1.63;66.46;96517.20;1660923;85;21053;-54
2022/03/22 03:43:20;;;;;;;161.55;81.25;;;;;;;-1.60;66.71;96514.39;1660715;85;21420;-52
2022/03/22 03:48:35;;;;;;;175.45;85.35;;;;;;;-1.87;67.11;96519.47;1660307;85;21112;-52
2022/03/22 03:51:04;;;;;;;179.55;87.40;;;;;;;-2.05;67.70;96518.77;1659870;85;21688;-51
2022/03/22 03:53:32;;;;;;;178.45;81.72;;;;;;;-2.11;68.08;96523.31;1661635;85;21053;-52
2022/03/22 03:56:00;;;;;;;181.20;84.60;;;;;;;-2.12;68.27;96520.38;1631903;85;21374;-51
2022/03/22 03:58:30;;;;;;;186.18;88.80;;;;;;;-2.15;68.38;96523.16;1668609;85;20990;-52
2022/03/22 04:00:59;;;;;;;181.20;84.22;;;;;;;-2.09;68.58;96530.52;1655373;85;21077;-50
2022/03/22 04:03:26;;;;;;;170.62;86.20;;;;;;;-2.06;68.67;96529.32;1661668;85;21100;-52
2022/03/22 04:05:55;;;;;;;187.22;86.55;;;;;;;-1.95;68.52;96527.83;1666618;85;21038;-51
2022/03/22 04:08:23;;;;;;;184.85;94.10;;;;;;;-1.86;68.44;96525.09;1669046;85;21180;-52
2022/03/22 04:10:50;;;;;;;191.95;91.97;;;;;;;-1.77;67.84;96534.72;1662878;85;21021;-51
2022/03/22 04:13:17;;;;;;;187.57;91.15;;;;;;;-1.80;67.58;96529.98;1643966;85;21079;-52
2022/03/22 04:15:45;;;;;;;173.07;83.92;;;;;;;-1.82;67.58;96533.56;1657875;85;21105;-53
2022/03/22 04:18:14;;;;;;;171.60;84.05;;;;;;;-1.87;67.52;96529.71;1662383;85;21027;-52
2022/03/22 04:20:41;;;;;;;169.45;77.45;;;;;;;-1.93;67.83;96532.91;1654674;85;21211;-52
2022/03/22 04:23:08;;;;;;;166.73;81.37;;;;;;;-1.95;68.08;96537.27;1670335;85;21075;-52
2022/03/22 04:25:36;;;;;;;161.88;75.15;;;;;;;-1.94;68.18;96537.50;1663931;85;20982;-52
2022/03/22 04:33:36;;;;;;;166.35;72.82;;;;;;;-2.03;68.45;96545.39;1649909;85;21013;-53
2022/03/22 04:36:05;;;;;;;159.80;73.52;;;;;;;-2.03;68.60;96548.89;1648375;84;21019;-54
2022/03/22 04:38:34;;;;;;;196.68;89.80;;;;;;;-2.07;68.54;96545.27;1653470;85;21090;-53
2022/03/22 04:41:01;;;;;;;180.57;88.65;;;;;;;-2.07;68.73;96552.00;1655934;85;21032;-51
2022/03/22 04:43:29;;;;;;;182.05;85.28;;;;;;;-2.04;68.52;96544.61;1649505;84;21137;-53
2022/03/22 04:45:57;;;;;;;198.53;94.17;;;;;;;-2.08;68.57;96549.08;1660583;86;21171;-50
2022/03/22 04:48:25;;;;;;;217.75;102.47;;;;;;;-2.02;68.47;96547.77;1660186;85;21094;-52
2022/03/22 04:56:43;;;;;;;210.80;103.87;;;;;;;-1.95;68.39;96555.36;1634256;85;21082;-52
2022/03/22 04:58:54;;;;;;;189.45;92.17;;;;;;;-1.77;67.63;96550.91;1633315;86;21198;-52
2022/03/22 05:01:21;;;;;;;179.23;90.85;;;;;;;-1.80;67.45;96552.91;1644712;86;21018;-52
2022/03/22 05:03:49;;;;;;;181.80;89.10;;;;;;;-1.82;67.34;96547.05;1638553;87;21031;-52
2022/03/22 05:06:26;;;;;;;171.75;80.95;;;;;;;-1.76;67.65;96545.20;1647459;85;20992;-54
2022/03/22 05:08:56;;;;;;;189.00;83.80;;;;;;;-1.68;67.36;96548.97;1653506;85;21022;-52
2022/03/22 05:11:24;;;;;;;196.32;88.25;;;;;;;-1.74;67.58;96555.64;1631350;86;21537;-51
2022/03/22 05:13:54;;;;;;;205.12;96.97;;;;;;;-1.77;67.53;96559.00;1664471;85;21057;-50
2022/03/22 05:16:21;;;;;;;172.22;83.90;;;;;;;-1.78;67.90;96550.67;1654158;85;20990;-52
2022/03/22 05:18:50;;;;;;;163.90;81.00;;;;;;;-1.70;67.94;96551.20;1647490;86;21510;-52
2022/03/22 05:21:18;;;;;;;167.57;78.50;;;;;;;-1.67;67.77;96551.33;1647196;86;21489;-52
2022/03/22 05:23:48;;;;;;;153.42;76.50;;;;;;;-1.72;67.83;96549.39;1650057;86;22276;-52
2022/03/22 05:26:15;;;;;;;169.35;77.97;;;;;;;-1.73;68.01;96550.52;1634381;85;21074;-52
2022/03/22 05:28:44;;;;;;;166.20;78.87;;;;;;;-1.70;68.07;96548.51;1643812;85;21023;-52
2022/03/22 05:31:14;;;;;;;186.15;83.05;;;;;;;-1.63;68.12;96546.88;1640587;87;21069;-52
2022/03/22 05:33:42;;;;;;;222.93;104.55;;;;;;;-1.58;68.15;96550.73;1623383;85;21665;-53
2022/03/22 05:36:09;;;;;;;222.07;108.40;;;;;;;-1.57;68.12;96542.88;1651376;84;21779;-52
2022/03/22 05:38:37;;;;;;;257.30;121.72;;;;;;;-1.57;68.31;96542.88;1664515;84;21093;-53
2022/03/22 05:41:06;;;;;;;249.62;115.72;;;;;;;-1.47;68.41;96544.41;1636114;85;21106;-52
2022/03/22 05:43:35;;;;;;;176.40;89.20;;;;;;;-1.38;68.85;96548.63;1654296;85;21068;-53
2022/03/22 05:46:03;;;;;;;136.88;74.60;;;;;;;-1.15;68.94;96543.14;1646279;84;21093;-52
2022/03/22 05:48:31;;;;;;;113.20;65.60;;;;;;;-0.85;68.75;96546.55;1648299;85;21165;-52
2022/03/22 05:50:58;;;;;;;143.22;74.87;;;;;;;-0.61;68.14;96550.73;1656518;85;21083;-52
2022/03/22 05:53:26;;;;;;;137.97;71.62;;;;;;;-0.51;67.41;96543.00;1650451;85;20986;-52
2022/03/22 05:55:55;;;;;;;114.85;61.75;;;;;;;-0.37;67.42;96552.16;1651666;85;21018;-50
2022/03/22 05:58:22;;;;;;;128.35;66.20;;;;;;;-0.23;66.88;96544.55;1639454;84;21078;-52
2022/03/22 06:00:50;;;;;;;126.35;66.33;;;;;;;-0.08;66.89;96541.20;1639073;86;21278;-51
2022/03/22 06:03:17;;;;;;;165.73;79.12;;;;;;;0.05;66.46;96539.52;1643750;85;21042;-51
2022/03/22 06:05:46;;;;;;;163.62;77.00;;;;;;;0.15;66.05;96537.17;1675061;84;21027;-50
2022/03/22 06:08:14;;;;;;;153.57;76.95;;;;;;;0.18;65.79;96538.39;1677740;84;21034;-50
2022/03/22 06:10:41;;;;;;;166.28;85.47;;;;;;;0.17;65.52;96545.73;1659143;84;21030;-55
2022/03/22 06:13:09;;;;;;;136.15;66.95;;;;;;;0.14;65.31;96535.59;1651716;84;21175;-55
2022/03/22 06:15:38;;;;;;;130.40;68.90;;;;;;;0.16;65.33;96540.64;1651705;84;21090;-55
2022/03/22 06:18:09;;;;;;;131.45;65.50;;;;;;;0.22;65.35;96549.56;1655442;84;20962;-52
2022/03/22 06:20:41;;;;;;;115.50;60.95;;;;;;;0.43;65.42;96544.83;1648954;85;21113;-52
2022/03/22 06:23:10;;;;;;;111.68;59.35;;;;;;;0.73;65.09;96546.17;1663760;84;21089;-48
2022/03/22 06:25:37;;;;;;;128.02;67.60;;;;;;;0.93;64.64;96553.36;1673672;85;21895;-51
2022/03/22 06:28:06;;;;;;;148.78;73.40;;;;;;;1.15;64.15;96558.86;1658278;85;21070;-50
2022/03/22 06:30:34;;;;;;;115.22;60.00;;;;;;;1.31;63.48;96557.00;1653109;85;21027;-51
2022/03/22 06:33:12;;;;;;;91.20;51.10;;;;;;;1.44;63.15;96553.91;1664092;85;21088;-52
2022/03/22 06:35:41;;;;;;;93.52;52.25;;;;;;;1.64;62.74;96550.20;1665461;84;20998;-50
2022/03/22 06:38:09;;;;;;;89.35;51.08;;;;;;;1.74;61.89;96555.14;1654631;84;21267;-52
2022/03/22 06:40:41;;;;;;;87.05;47.60;;;;;;;1.73;61.70;96548.11;1648780;84;21054;-53
2022/03/22 06:43:11;;;;;;;95.15;49.88;;;;;;;1.83;61.79;96547.61;1648238;84;21148;-55
2022/03/22 06:45:38;;;;;;;95.87;50.40;;;;;;;1.88;61.35;96540.57;1660740;84;21106;-54
2022/03/22 06:48:11;;;;;;;96.35;48.50;;;;;;;1.92;61.19;96540.89;1660136;84;21495;-53
2022/03/22 06:50:36;;;;;;;97.08;47.20;;;;;;;1.97;61.09;96542.56;1648101;85;21352;-53
2022/03/22 06:53:05;;;;;;;103.78;47.27;;;;;;;2.03;60.97;96533.02;1652231;84;21100;-54
2022/03/22 06:55:33;;;;;;;107.55;47.83;;;;;;;2.12;60.92;96540.44;1652229;84;21061;-53
2022/03/22 06:58:00;;;;;;;87.25;44.85;;;;;;;2.24;60.69;96536.27;1634729;84;21144;-54
2022/03/22 07:00:28;;;;;;;94.80;49.67;;;;;;;2.37;60.38;96533.69;1648787;84;21143;-52
2022/03/22 07:02:56;;;;;;;88.78;49.05;;;;;;;2.47;60.03;96533.17;1633868;84;21793;-54
2022/03/22 07:05:24;;;;;;;115.35;58.98;;;;;;;2.58;59.75;96538.27;1639967;85;21079;-53
2022/03/22 07:07:51;;;;;;;100.78;51.95;;;;;;;2.72;59.60;96525.02;1642301;84;21114;-59
2022/03/22 07:10:18;;;;;;;110.37;59.30;;;;;;;2.89;59.38;96526.00;1648496;84;21094;-57
2022/03/22 07:12:55;;;;;;;107.55;56.45;;;;;;;3.01;58.98;96528.57;1633743;85;21120;-55
2022/03/22 07:15:36;;;;;;;135.65;66.95;;;;;;;3.14;58.90;96528.11;1655227;85;22258;-53
2022/03/22 07:18:11;;;;;;;146.70;68.83;;;;;;;3.30;58.61;96521.25;1624432;85;21059;-51
2022/03/22 07:20:39;;;;;;;109.27;54.65;;;;;;;3.48;58.41;96511.51;1642585;85;21101;-51
2022/03/22 07:23:06;;;;;;;119.90;62.90;;;;;;;3.70;58.08;96511.58;1649562;84;21120;-53
2022/03/22 07:25:34;;;;;;;104.58;57.23;;;;;;;3.80;57.57;96503.60;1663870;85;21553;-51
2022/03/22 07:28:01;;;;;;;114.65;58.40;;;;;;;3.85;57.33;96503.30;1650318;84;21313;-51
2022/03/22 07:30:30;;;;;;;128.50;64.65;;;;;;;3.92;57.54;96499.36;1647095;84;21040;-53
2022/03/22 07:32:57;;;;;;;97.95;54.30;;;;;;;4.05;57.05;96495.30;1650521;84;21081;-53
2022/03/22 07:35:26;;;;;;;106.58;55.67;;;;;;;4.13;56.77;96497.01;1660019;84;21599;-51
2022/03/22 07:37:55;;;;;;;96.30;48.80;;;;;;;4.25;56.67;96493.31;1650811;85;22089;-52
2022/03/22 07:40:25;;;;;;;114.67;57.85;;;;;;;4.41;56.79;96487.93;1642522;85;21316;-53
2022/03/22 07:42:57;;;;;;;99.90;58.05;;;;;;;4.60;56.62;96487.84;1651239;84;21026;-53
2022/03/22 07:45:28;;;;;;;88.80;51.88;;;;;;;4.80;55.84;96477.03;1651642;85;21071;-53
2022/03/22 07:47:55;;;;;;;93.37;51.53;;;;;;;4.91;55.38;96482.07;1655537;84;21010;-53
2022/03/22 07:53:10;;;;;;;95.87;53.30;;;;;;;5.13;54.81;96483.16;1648669;84;21830;-53
2022/03/22 07:55:40;;;;;;;92.05;52.48;;;;;;;5.31;54.56;96480.84;1637640;85;21046;-52
2022/03/22 07:58:08;;;;;;;89.62;51.88;;;;;;;5.51;54.35;96474.07;1655295;85;21126;-55
2022/03/22 08:00:38;;;;;;;90.32;50.40;;;;;;;5.69;54.26;96469.59;1641894;85;22272;-56
2022/03/22 08:03:10;;;;;;;93.97;53.65;;;;;;;5.92;54.25;96463.42;1643438;85;21129;-54
2022/03/22 08:05:38;;;;;;;95.95;53.78;;;;;;;6.09;53.41;96464.17;1649498;84;21276;-57
2022/03/22 08:08:07;;;;;;;88.75;53.28;;;;;;;6.26;53.09;96455.34;1643951;85;21105;-53
2022/03/22 08:10:35;;;;;;;86.80;51.77;;;;;;;6.42;52.73;96455.31;1671691;84;21045;-54
2022/03/22 08:13:03;;;;;;;94.92;48.95;;;;;;;6.62;52.72;96461.30;1661936;84;21274;-54
2022/03/22 08:15:30;;;;;;;69.22;39.53;;;;;;;6.86;53.35;96441.55;1657138;83;21120;-56
2022/03/22 08:17:58;;;;;;;66.45;35.95;;;;;;;7.08;52.72;96443.44;1632141;84;21150;-57
2022/03/22 08:20:28;;;;;;;79.03;35.08;;;;;;;7.27;51.78;96446.44;1639231;85;21039;-54
2022/03/22 08:22:59;;;;;;;86.87;45.35;;;;;;;7.45;51.34;96439.88;1647708;85;21126;-56
2022/03/22 08:25:29;;;;;;;72.10;37.35;;;;;;;7.69;50.98;96441.91;1649707;85;21076;-54
2022/03/22 08:27:59;;;;;;;78.45;37.65;;;;;;;7.89;50.92;96441.76;1653563;85;21168;-55
2022/03/22 08:30:28;;;;;;;45.83;28.30;;;;;;;8.08;50.19;96434.55;1650469;85;21857;-52
2022/03/22 08:32:58;;;;;;;49.75;28.47;;;;;;;8.32;50.25;96437.95;1651539;85;21045;-55
2022/03/22 08:35:27;;;;;;;62.17;35.55;;;;;;;8.53;49.64;96430.28;1647584;85;21214;-55
2022/03/22 08:37:56;;;;;;;49.45;30.65;;;;;;;8.75;49.03;96423.59;1648472;84;21125;-55
2022/03/22 08:40:25;;;;;;;49.40;26.12;;;;;;;8.96;49.50;96424.34;1620541;85;21560;-56
2022/03/22 08:42:53;;;;;;;46.00;26.23;;;;;;;9.15;49.18;96419.78;1640395;85;21351;-55
2022/03/22 08:45:23;;;;;;;49.75;24.72;;;;;;;9.37;48.70;96417.14;1651957;85;22953;-55
2022/03/22 08:47:52;;;;;;;37.45;22.77;;;;;;;9.61;48.52;96408.03;1653655;85;21031;-54
2022/03/22 08:50:24;;;;;;;55.95;27.70;;;;;;;9.85;47.64;96415.35;1652258;84;21728;-56
2022/03/22 08:52:56;;;;;;;42.65;23.98;;;;;;;10.05;47.71;96406.80;1651117;84;21074;-57
2022/03/22 08:55:23;;;;;;;36.10;19.40;;;;;;;10.26;47.35;96406.07;1657989;84;21198;-54
2022/03/22 08:57:52;;;;;;;36.80;20.50;;;;;;;10.48;46.53;96392.91;1655828;84;21092;-53
2022/03/22 09:00:20;;;;;;;24.47;14.87;;;;;;;10.65;45.87;96396.09;1652680;84;21089;-52
2022/03/22 09:02:49;;;;;;;22.73;12.80;;;;;;;10.85;45.49;96393.75;1653965;85;21009;-57
2022/03/22 09:08:05;;;;;;;17.20;9.45;;;;;;;11.14;43.28;96383.39;1659825;85;21154;-53
2022/03/22 09:10:37;;;;;;;79.53;15.65;;;;;;;11.37;43.26;96380.75;1637613;84;21610;-53
2022/03/22 09:13:06;;;;;;;14.80;10.30;;;;;;;11.58;43.31;96372.85;1651493;85;21735;-55
2022/03/22 09:15:37;;;;;;;24.92;15.18;;;;;;;11.83;42.86;96373.28;1644825;84;21164;-57
2022/03/22 09:18:27;;;;;;;17.95;10.82;;;;;;;12.08;41.18;96377.24;1627095;85;21542;-53
2022/03/22 09:20:38;;;;;;;25.60;12.70;;;;;;;12.30;41.05;96375.71;1645664;84;21222;-54
2022/03/22 09:23:08;;;;;;;11.03;7.08;;;;;;;12.54;41.01;96375.92;1640466;85;21104;-55
2022/03/22 09:25:37;;;;;;;15.55;9.25;;;;;;;12.77;40.08;96367.04;1659337;84;21097;-54
2022/03/22 09:28:06;;;;;;;15.10;8.68;;;;;;;13.04;39.52;96358.69;1657733;84;21196;-54
2022/03/22 09:30:35;;;;;;;12.15;7.70;;;;;;;13.29;38.90;96364.50;1658490;84;21013;-57
2022/03/22 09:33:04;;;;;;;23.73;9.28;;;;;;;13.53;37.61;96361.82;1635629;84;22005;-54
2022/03/22 09:35:35;;;;;;;11.03;6.97;;;;;;;13.72;37.17;96356.28;1654962;85;20985;-53
2022/03/22 09:38:02;;;;;;;16.07;8.10;;;;;;;13.90;36.47;96353.11;1649541;85;21021;-53
2022/03/22 09:40:32;;;;;;;17.75;8.50;;;;;;;14.08;36.11;96349.33;1663122;83;21108;-56
2022/03/22 09:43:00;;;;;;;18.35;8.03;;;;;;;14.31;36.64;96353.36;1640409;85;21439;-55
2022/03/22 09:45:32;;;;;;;12.80;7.50;;;;;;;14.56;35.31;96357.87;1648174;84;21166;-54
2022/03/22 09:48:01;;;;;;;;;;;;;;;14.79;35.04;96346.59;1658437;85;21072;-55
2022/03/22 09:53:16;;;;;;;22.02;8.93;;;;;;;15.34;34.59;96342.77;1658328;84;21111;-53
2022/03/22 09:55:43;;;;;;;14.68;7.05;;;;;;;15.74;32.70;96337.78;1660466;83;21416;-54
2022/03/22 09:58:11;;;;;;;11.08;6.15;;;;;;;16.11;33.18;96344.61;1661855;84;21165;-55
2022/03/22 10:00:38;;;;;;;21.27;7.40;;;;;;;16.52;32.03;96346.05;1629948;86;21093;-54
2022/03/22 10:03:06;;;;;;;11.00;6.60;;;;;;;17.01;31.16;96334.66;1576233;89;21037;-57
2022/03/22 10:05:34;;;;;;;13.62;7.12;;;;;;;17.51;30.80;96339.24;1664135;84;21691;-54
2022/03/22 10:08:07;;;;;;;14.63;7.33;;;;;;;17.94;29.29;96344.16;1658996;84;21530;-57
2022/03/22 10:10:44;;;;;;;9.30;5.85;;;;;;;18.30;30.07;96336.00;1632762;85;21053;-53
2022/03/22 10:13:14;;;;;;;8.20;5.65;;;;;;;18.76;29.22;96340.46;1626007;85;21256;-55
2022/03/22 10:15:43;;;;;;;23.50;8.03;;;;;;;19.14;27.55;96333.84;1650694;84;21098;-58
2022/03/22 10:18:12;;;;;;;15.38;9.00;;;;;;;19.41;28.38;96322.09;1657949;84;21550;-56
2022/03/22 10:20:41;;;;;;;11.35;6.75;;;;;;;19.87;26.87;96324.98;1657238;85;21082;-58
2022/03/22 10:23:13;;;;;;;10.35;6.35;;;;;;;20.37;26.69;96318.64;1629868;85;22018;-57
2022/03/22 10:25:41;;;;;;;15.53;5.05;;;;;;;20.83;26.25;96321.33;1670265;84;21027;-56
2022/03/22 10:28:09;;;;;;;7.58;4.87;;;;;;;21.26;25.40;96322.16;1664527;84;21176;-63
2022/03/22 10:30:38;;;;;;;8.48;5.05;;;;;;;21.58;24.11;96312.84;1650171;85;21726;-56
2022/03/22 10:33:05;;;;;;;10.82;5.00;;;;;;;21.78;23.68;96311.58;1644748;82;21057;-55
2022/03/22 10:35:38;;;;;;;9.20;5.40;;;;;;;21.99;24.44;96319.62;1637306;85;21212;-55
2022/03/22 10:38:07;;;;;;;9.78;5.25;;;;;;;22.18;23.78;96314.73;1647047;85;21152;-58
2022/03/22 10:40:46;;;;;;;5.67;3.95;;;;;;;22.25;23.23;96314.33;1630533;86;21117;-57
2022/03/22 10:43:22;;;;;;;12.43;5.42;;;;;;;22.44;23.54;96312.87;1651553;84;21042;-56
2022/03/22 10:46:09;;;;;;;13.05;6.65;;;;;;;22.65;23.01;96312.31;1657915;84;21293;-59
2022/03/22 10:48:28;;;;;;;11.55;5.90;;;;;;;22.88;22.24;96305.74;1644708;85;21170;-57
2022/03/22 10:50:58;;;;;;;9.43;5.10;;;;;;;23.04;21.22;96305.95;1648271;84;21077;-56
2022/03/22 10:53:26;;;;;;;7.42;4.67;;;;;;;23.06;20.91;96299.20;1663910;84;21200;-57
2022/03/22 10:55:54;;;;;;;9.83;4.90;;;;;;;23.05;21.44;96305.33;1646662;85;22235;-55
2022/03/22 10:58:25;;;;;;;17.52;6.08;;;;;;;23.08;21.48;96299.52;1649735;85;20999;-55
2022/03/22 11:00:53;;;;;;;11.43;6.10;;;;;;;23.19;21.77;96297.50;1645432;84;21150;-54
2022/03/22 11:03:24;;;;;;;10.55;5.20;;;;;;;23.35;21.68;96307.53;1668005;84;20975;-55
2022/03/22 11:05:55;;;;;;;8.83;6.03;;;;;;;23.60;20.92;96300.41;1633482;85;21034;-55
2022/03/22 11:08:25;;;;;;;14.53;5.67;;;;;;;23.68;20.71;96300.09;1620690;85;21026;-53
2022/03/22 11:10:54;;;;;;;14.25;6.20;;;;;;;23.83;21.04;96284.70;1649098;85;21609;-60
2022/03/22 11:13:32;;;;;;;12.25;6.45;;;;;;;24.23;20.50;96291.58;1636761;85;21545;-56
2022/03/22 11:15:59;;;;;;;8.45;5.50;;;;;;;24.46;20.03;96284.84;1649762;85;21037;-55
2022/03/22 11:18:29;;;;;;;10.90;6.78;;;;;;;24.51;19.96;96287.73;1641110;84;21043;-56
2022/03/22 11:21:01;;;;;;;12.68;6.60;;;;;;;24.62;20.07;96287.82;1654372;85;21128;-54
2022/03/22 11:23:31;;;;;;;9.28;6.83;;;;;;;24.90;19.99;96287.98;1651680;85;20983;-55
2022/03/22 11:26:20;;;;;;;13.15;7.92;;;;;;;25.14;19.38;96286.95;1622819;86;21206;-53
2022/03/22 11:28:53;;;;;;;14.35;7.78;;;;;;;25.22;20.06;96283.80;1647100;85;21163;-56
2022/03/22 11:31:20;;;;;;;13.08;7.33;;;;;;;25.31;19.44;96273.73;1669661;84;21155;-54
2022/03/22 11:36:55;;;;;;;11.75;7.42;;;;;;;25.24;18.90;96274.20;1634153;85;21037;-54
2022/03/22 11:42:21;;;;;;;11.97;6.90;;;;;;;25.26;18.43;96265.38;1652884;85;21548;-56
2022/03/22 11:45:02;;;;;;;18.77;6.05;;;;;;;25.24;17.87;96264.34;1662278;85;21011;-56
2022/03/22 11:47:41;;;;;;;22.62;6.83;;;;;;;25.24;18.20;96261.52;1655380;85;21121;-56
2022/03/22 11:50:17;;;;;;;9.75;6.55;;;;;;;25.32;18.20;96253.48;1661763;85;20973;-55
2022/03/22 11:52:48;;;;;;;19.42;7.97;;;;;;;25.47;18.04;96246.24;1654123;85;21424;-55
2022/03/22 11:55:22;;;;;;;22.10;6.70;;;;;;;25.60;17.88;96245.09;1651788;84;21113;-55
2022/03/22 11:57:51;;;;;;;10.98;7.15;;;;;;;25.73;17.48;96243.98;1633404;85;21117;-56
2022/03/22 12:00:46;;;;;;;15.98;6.65;;;;;;;25.64;17.36;96243.58;1646095;85;21108;-55